createdAt,value
2018-06-08T00:00:02.785Z,95.08
2018-06-08T00:02:31.720Z,95.20
2018-06-08T00:05:00.872Z,95.02
2018-06-08T00:07:30.052Z,94.74
2018-06-08T00:09:59.204Z,95.01
2018-06-08T00:12:28.389Z,94.48
2018-06-08T00:14:57.550Z,95.00
2018-06-08T00:17:26.712Z,94.58
2018-06-08T00:19:55.873Z,94.94
2018-06-08T00:22:25.047Z,94.50
2018-06-08T00:24:54.205Z,94.35
2018-06-08T00:27:23.374Z,94.26
2018-06-08T00:29:52.534Z,94.24
2018-06-08T00:32:22.361Z,94.53
2018-06-08T00:34:51.520Z,94.34
2018-06-08T00:37:20.704Z,94.73
2018-06-08T00:39:49.865Z,94.47
2018-06-08T00:42:19.044Z,94.57
2018-06-08T00:44:47.983Z,94.32
2018-06-08T00:47:17.152Z,94.68
2018-06-08T00:49:46.372Z,94.99
2018-06-08T00:52:15.558Z,95.17
2018-06-08T00:54:44.757Z,95.66
2018-06-08T00:57:13.952Z,95.17
2018-06-08T00:59:43.165Z,95.41
2018-06-08T01:02:12.357Z,95.67
2018-06-08T01:04:41.541Z,96.42
2018-06-08T01:07:10.730Z,96.68
2018-06-08T01:09:39.932Z,96.38
2018-06-08T01:12:09.117Z,97.02
2018-06-08T01:14:38.312Z,96.69
2018-06-08T01:17:07.517Z,96.76
2018-06-08T01:19:36.765Z,96.78
2018-06-08T01:22:05.962Z,96.44
2018-06-08T01:24:35.149Z,96.61
2018-06-08T01:27:04.344Z,96.90
2018-06-08T01:29:33.544Z,97.43
2018-06-08T01:32:02.733Z,96.93
2018-06-08T01:34:31.929Z,96.46
2018-06-08T01:37:01.117Z,96.74
2018-06-08T01:39:30.315Z,96.93
2018-06-08T01:41:59.505Z,96.56
2018-06-08T01:44:28.693Z,96.44
2018-06-08T01:46:57.902Z,96.94
2018-06-08T01:49:27.103Z,96.85
2018-06-08T01:51:56.293Z,96.39
2018-06-08T01:54:25.485Z,96.38
2018-06-08T01:56:54.676Z,96.67
2018-06-08T01:59:23.865Z,96.48
2018-06-08T02:01:53.057Z,96.82
2018-06-08T02:04:22.008Z,96.34
2018-06-08T02:06:51.210Z,96.35
2018-06-08T02:09:20.392Z,96.25
2018-06-08T02:11:50.228Z,96.37
2018-06-08T02:14:19.420Z,96.91
2018-06-08T02:16:48.622Z,96.17
2018-06-08T02:19:17.812Z,96.36
2018-06-08T02:21:47.012Z,96.28
2018-06-08T02:24:16.213Z,96.38
2018-06-08T02:26:45.400Z,96.56
2018-06-08T02:29:14.592Z,96.79
2018-06-08T02:31:43.784Z,96.20
2018-06-08T02:34:12.972Z,95.48
2018-06-08T02:36:42.162Z,95.81
2018-06-08T02:39:11.341Z,95.93
2018-06-08T02:41:40.549Z,95.74
2018-06-08T02:44:09.737Z,95.88
2018-06-08T02:46:38.942Z,95.79
2018-06-08T02:49:08.132Z,96.00
2018-06-08T02:51:37.331Z,96.14
2018-06-08T02:54:06.537Z,96.24
2018-06-08T02:56:35.732Z,96.71
2018-06-08T02:59:04.923Z,96.20
2018-06-08T03:01:33.880Z,96.65
2018-06-08T03:04:03.104Z,96.93
2018-06-08T03:06:32.063Z,97.16
2018-06-08T03:09:01.258Z,97.07
2018-06-08T03:11:30.453Z,96.87
2018-06-08T03:13:59.644Z,96.96
2018-06-08T03:16:28.840Z,97.05
2018-06-08T03:18:58.038Z,97.06
2018-06-08T03:21:27.217Z,96.84
2018-06-08T03:23:56.429Z,97.30
2018-06-08T03:26:25.616Z,97.49
2018-06-08T03:28:54.815Z,96.97
2018-06-08T03:31:24.010Z,96.48
2018-06-08T03:33:53.217Z,96.05
2018-06-08T03:36:22.421Z,96.52
2018-06-08T03:38:51.612Z,96.56
2018-06-08T03:41:20.806Z,96.51
2018-06-08T03:43:49.993Z,96.87
2018-06-08T03:46:19.201Z,97.05
2018-06-08T03:48:48.390Z,96.89
2018-06-08T03:51:17.580Z,96.40
2018-06-08T03:53:46.784Z,96.76
2018-06-08T03:56:15.981Z,96.38
2018-06-08T03:58:45.180Z,96.48
2018-06-08T04:01:14.372Z,96.60
2018-06-08T04:03:43.556Z,96.26
2018-06-08T04:06:12.754Z,96.39
2018-06-08T04:08:41.936Z,96.68
2018-06-08T04:11:11.140Z,96.32
2018-06-08T04:13:40.333Z,96.34
2018-06-08T04:16:09.546Z,96.04
2018-06-08T04:18:38.740Z,96.22
2018-06-08T04:21:08.089Z,95.88
2018-06-08T04:23:37.277Z,95.33
2018-06-08T04:26:06.457Z,95.18
2018-06-08T04:28:36.473Z,95.07
2018-06-08T04:31:05.652Z,95.16
2018-06-08T04:33:34.850Z,95.25
2018-06-08T04:36:04.068Z,94.87
2018-06-08T04:38:33.285Z,95.08
2018-06-08T04:41:02.475Z,94.72
2018-06-08T04:43:31.659Z,94.66
2018-06-08T04:46:00.848Z,94.69
2018-06-08T04:48:30.070Z,93.75
2018-06-08T04:50:59.259Z,92.95
2018-06-08T04:53:28.573Z,93.46
2018-06-08T04:55:57.788Z,93.06
2018-06-08T04:58:26.993Z,92.70
2018-06-08T05:00:55.935Z,93.15
2018-06-08T05:03:25.091Z,92.85
2018-06-08T05:05:54.266Z,93.09
2018-06-08T05:08:23.424Z,92.68
2018-06-08T05:10:52.614Z,92.45
2018-06-08T05:13:21.775Z,91.47
2018-06-08T05:15:51.500Z,91.39
2018-06-08T05:18:20.756Z,90.98
2018-06-08T05:20:49.955Z,90.83
2018-06-08T05:23:19.201Z,91.05
2018-06-08T05:25:48.399Z,91.57
2018-06-08T05:28:17.641Z,92.41
2018-06-08T05:30:46.831Z,91.96
2018-06-08T05:33:16.031Z,92.89
2018-06-08T05:35:45.240Z,92.65
2018-06-08T05:38:14.457Z,92.66
2018-06-08T05:40:43.653Z,92.34
2018-06-08T05:43:12.917Z,92.15
2018-06-08T05:45:42.107Z,92.24
2018-06-08T05:48:11.326Z,92.06
2018-06-08T05:50:40.531Z,92.90
2018-06-08T05:53:09.786Z,92.36
2018-06-08T05:55:39.065Z,92.34
2018-06-08T05:58:08.346Z,91.88
2018-06-08T06:00:37.602Z,91.38
2018-06-08T06:03:06.869Z,91.98
2018-06-08T06:05:35.852Z,91.39
2018-06-08T06:08:06.028Z,91.21
2018-06-08T06:10:35.206Z,91.77
2018-06-08T06:13:04.435Z,91.72
2018-06-08T06:15:33.642Z,91.57
2018-06-08T06:18:02.839Z,90.35
2018-06-08T06:20:32.030Z,91.10
2018-06-08T06:23:01.251Z,91.04
2018-06-08T06:25:30.219Z,91.42
2018-06-08T06:27:59.420Z,92.11
2018-06-08T06:30:28.664Z,91.90
2018-06-08T06:32:57.891Z,91.90
2018-06-08T06:35:27.163Z,91.28
2018-06-08T06:37:56.363Z,91.01
2018-06-08T06:40:25.565Z,90.73
2018-06-08T06:42:54.748Z,90.58
2018-06-08T06:45:23.923Z,90.81
2018-06-08T06:47:53.142Z,91.15
2018-06-08T06:50:22.360Z,90.64
2018-06-08T06:52:51.590Z,92.05
2018-06-08T06:55:20.868Z,92.03
2018-06-08T06:57:50.110Z,92.10
2018-06-08T07:00:19.319Z,93.52
2018-06-08T07:02:48.527Z,94.65
2018-06-08T07:05:17.739Z,93.41
2018-06-08T07:07:47.005Z,93.80
2018-06-08T07:10:16.206Z,92.89
2018-06-08T07:12:45.428Z,92.82
2018-06-08T07:15:14.629Z,93.43
2018-06-08T07:17:43.857Z,93.37
2018-06-08T07:20:13.051Z,92.44
2018-06-08T07:22:42.299Z,92.07
2018-06-08T07:25:11.277Z,90.57
2018-06-08T07:27:40.525Z,90.04
2018-06-08T07:30:09.783Z,89.69
2018-06-08T07:32:39.051Z,89.05
2018-06-08T07:35:08.268Z,87.74
2018-06-08T07:37:37.516Z,86.70
2018-06-08T07:40:06.912Z,85.33
2018-06-08T07:42:36.022Z,86.24
2018-06-08T07:45:05.232Z,85.74
2018-06-08T07:47:34.416Z,85.27
2018-06-08T07:50:03.623Z,86.45
2018-06-08T07:52:32.819Z,85.13
2018-06-08T07:55:02.021Z,84.66
2018-06-08T07:57:31.229Z,84.76
2018-06-08T08:00:00.427Z,83.71
2018-06-08T08:02:29.615Z,82.40
2018-06-08T08:04:58.819Z,84.47
2018-06-08T08:07:28.009Z,83.53
2018-06-08T08:09:57.207Z,83.08
2018-06-08T08:12:26.406Z,83.11
2018-06-08T08:14:55.595Z,83.17
2018-06-08T08:17:24.781Z,83.17
2018-06-08T08:19:53.977Z,81.67
2018-06-08T08:22:23.166Z,82.55
2018-06-08T08:24:52.378Z,84.39
2018-06-08T08:27:21.617Z,81.79
2018-06-08T08:29:50.835Z,80.49
2018-06-08T08:32:20.238Z,82.03
2018-06-08T08:34:49.430Z,80.20
2018-06-08T08:37:18.655Z,80.13
2018-06-08T08:39:47.848Z,80.36
2018-06-08T08:42:17.040Z,78.91
2018-06-08T08:44:45.971Z,77.13
2018-06-08T08:47:15.165Z,76.71
2018-06-08T08:49:44.398Z,76.41
2018-06-08T08:52:13.649Z,76.75
2018-06-08T08:54:42.946Z,76.36
2018-06-08T08:57:12.220Z,78.75
2018-06-08T08:59:41.464Z,77.77
2018-06-08T09:02:10.692Z,78.00
2018-06-08T09:04:39.945Z,76.47
2018-06-08T09:07:09.183Z,75.46
2018-06-08T09:09:38.413Z,74.65
2018-06-08T09:12:07.651Z,75.74
2018-06-08T09:14:36.905Z,75.36
2018-06-08T09:17:06.236Z,75.34
2018-06-08T09:19:35.488Z,75.73
2018-06-08T09:22:04.704Z,76.08
2018-06-08T09:24:33.778Z,74.21
2018-06-08T09:27:03.026Z,74.45
2018-06-08T09:29:32.259Z,74.83
2018-06-08T09:32:01.549Z,74.11
2018-06-08T09:34:30.833Z,75.58
2018-06-08T09:37:00.049Z,76.25
2018-06-08T09:39:29.326Z,76.30
2018-06-08T09:41:58.567Z,76.41
2018-06-08T09:44:27.788Z,74.99
2018-06-08T09:46:56.988Z,73.58
2018-06-08T09:49:26.247Z,75.63
2018-06-08T09:51:56.856Z,76.43
2018-06-08T09:54:26.151Z,76.08
2018-06-08T09:56:55.437Z,74.73
2018-06-08T09:59:24.774Z,73.15
2018-06-08T10:01:54.103Z,73.36
2018-06-08T10:04:23.401Z,72.36
2018-06-08T10:06:52.698Z,73.06
2018-06-08T10:09:22.066Z,72.52
2018-06-08T10:11:51.376Z,70.63
2018-06-08T10:14:20.668Z,70.28
2018-06-08T10:16:49.962Z,71.11
2018-06-08T10:19:19.255Z,70.36
2018-06-08T10:21:48.578Z,69.25
2018-06-08T10:24:17.873Z,70.09
2018-06-08T10:26:47.202Z,67.68
2018-06-08T10:29:16.498Z,66.64
2018-06-08T10:31:45.796Z,67.32
2018-06-08T10:34:15.068Z,64.57
2018-06-08T10:36:44.377Z,65.87
2018-06-08T10:39:13.668Z,65.95
2018-06-08T10:41:42.919Z,68.34
2018-06-08T10:44:12.282Z,67.80
2018-06-08T10:46:41.563Z,68.19
2018-06-08T10:49:10.825Z,67.79
2018-06-08T10:51:40.116Z,67.08
2018-06-08T10:54:09.407Z,68.19
2018-06-08T10:56:38.682Z,66.72
2018-06-08T10:59:07.969Z,66.31
2018-06-08T11:01:37.231Z,65.05
2018-06-08T11:04:06.546Z,65.84
2018-06-08T11:06:35.864Z,69.44
2018-06-08T11:09:07.642Z,67.82
2018-06-08T11:11:37.198Z,66.58
2018-06-08T11:14:06.523Z,64.44
2018-06-08T11:16:35.833Z,59.92
2018-06-08T11:19:05.093Z,59.83
2018-06-08T11:21:34.439Z,62.94
2018-06-08T11:24:03.739Z,60.75
2018-06-08T11:26:33.023Z,61.44
2018-06-08T11:29:02.306Z,60.60
2018-06-08T11:31:31.593Z,56.40
2018-06-08T11:34:00.915Z,56.30
2018-06-08T11:36:30.201Z,55.60
2018-06-08T11:38:59.478Z,54.79
2018-06-08T11:41:28.774Z,54.97
2018-06-08T11:43:57.787Z,54.86
2018-06-08T11:46:27.078Z,57.94
2018-06-08T11:48:56.360Z,56.56
2018-06-08T11:51:25.637Z,56.68
2018-06-08T11:53:54.899Z,52.37
2018-06-08T11:56:24.180Z,54.31
2018-06-08T11:58:53.438Z,54.38
2018-06-08T12:01:22.669Z,53.37
2018-06-08T12:03:51.696Z,54.65
2018-06-08T12:06:20.937Z,51.65
2018-06-08T12:08:50.223Z,51.77
2018-06-08T12:11:19.479Z,49.70
2018-06-08T12:13:48.706Z,52.75
2018-06-08T12:16:17.948Z,53.23
2018-06-08T12:18:47.182Z,51.91
2018-06-08T12:21:16.413Z,51.55
2018-06-08T12:23:45.666Z,50.28
2018-06-08T12:26:14.920Z,53.91
2018-06-08T12:28:44.138Z,52.02
2018-06-08T12:31:13.375Z,54.29
2018-06-08T12:33:46.308Z,52.32
2018-06-08T12:36:15.832Z,52.63
2018-06-08T12:38:46.322Z,53.92
2018-06-08T12:41:15.587Z,51.38
2018-06-08T12:43:44.904Z,48.98
2018-06-08T12:46:14.507Z,49.35
2018-06-08T12:48:43.989Z,48.85
2018-06-08T12:51:13.572Z,46.31
2018-06-08T12:53:42.669Z,47.46
2018-06-08T12:56:11.951Z,46.69
2018-06-08T12:58:41.193Z,46.90
2018-06-08T13:01:10.740Z,44.55
2018-06-08T13:03:39.956Z,47.74
2018-06-08T13:06:09.155Z,45.94
2018-06-08T13:08:38.351Z,45.79
2018-06-08T13:11:07.820Z,42.68
2018-06-08T13:13:37.142Z,39.15
2018-06-08T13:16:06.368Z,37.09
2018-06-08T13:18:35.669Z,41.46
2018-06-08T13:21:04.874Z,44.20
2018-06-08T13:23:34.350Z,47.08
2018-06-08T13:26:03.818Z,45.45
2018-06-08T13:28:33.072Z,44.62
2018-06-08T13:31:02.255Z,39.98
2018-06-08T13:33:31.428Z,40.38
2018-06-08T13:36:03.448Z,39.81
2018-06-08T13:38:32.687Z,41.12
2018-06-08T13:41:02.071Z,42.13
2018-06-08T13:43:38.034Z,39.25
2018-06-08T13:46:24.771Z,39.24
2018-06-08T13:48:53.978Z,37.30
2018-06-08T13:51:23.184Z,37.42
2018-06-08T13:53:52.730Z,37.81
2018-06-08T13:56:22.189Z,36.07
2018-06-08T13:58:51.543Z,38.81
2018-06-08T14:01:24.278Z,35.01
2018-06-08T14:03:53.853Z,38.04
2018-06-08T14:06:23.414Z,34.70
2018-06-08T14:08:53.001Z,36.09
2018-06-08T14:11:22.228Z,35.13
2018-06-08T14:13:54.296Z,36.22
2018-06-08T14:16:26.447Z,36.44
2018-06-08T14:18:55.928Z,37.55
2018-06-08T14:21:25.404Z,33.26
2018-06-08T14:23:54.828Z,33.41
2018-06-08T14:26:24.362Z,36.13
2018-06-08T14:29:19.063Z,32.40
2018-06-08T14:31:54.705Z,33.30
2018-06-08T14:34:24.683Z,35.02
2018-06-08T14:36:54.325Z,35.81
2018-06-08T14:39:24.135Z,34.15
2018-06-08T14:41:53.342Z,32.53
2018-06-08T14:44:27.020Z,32.59
2018-06-08T14:46:56.450Z,33.17
2018-06-08T14:49:26.086Z,32.56
2018-06-08T14:51:55.854Z,32.58
2018-06-08T14:54:25.173Z,30.17
2018-06-08T14:56:54.384Z,31.24
2018-06-08T14:59:23.599Z,34.32
2018-06-08T15:01:52.804Z,33.34
2018-06-08T15:04:22.012Z,36.30
2018-06-08T15:06:51.216Z,35.96
2018-06-08T15:09:20.419Z,34.73
2018-06-08T15:11:49.648Z,35.51
2018-06-08T15:14:18.902Z,34.31
2018-06-08T15:16:48.187Z,36.30
2018-06-08T15:19:17.382Z,35.59
2018-06-08T15:21:46.596Z,37.23
2018-06-08T15:24:15.861Z,34.48
2018-06-08T15:26:45.565Z,36.76
2018-06-08T15:29:14.903Z,36.62
2018-06-08T15:31:44.105Z,35.04
2018-06-08T15:34:13.362Z,34.12
2018-06-08T15:36:42.608Z,38.53
2018-06-08T15:39:11.844Z,38.56
2018-06-08T15:41:41.090Z,39.63
2018-06-08T15:44:10.552Z,37.71
2018-06-08T15:46:39.836Z,37.59
2018-06-08T15:49:08.794Z,39.44
2018-06-08T15:51:38.424Z,38.86
2018-06-08T15:54:07.420Z,40.83
2018-06-08T15:56:36.730Z,44.43
2018-06-08T15:59:05.757Z,41.95
2018-06-08T16:01:35.019Z,38.87
2018-06-08T16:04:04.433Z,36.98
2018-06-08T16:06:34.665Z,37.29
2018-06-08T16:09:04.201Z,37.17
2018-06-08T16:11:33.450Z,37.10
2018-06-08T16:14:02.696Z,37.55
2018-06-08T16:16:31.856Z,36.37
2018-06-08T16:19:01.042Z,36.23
2018-06-08T16:21:29.975Z,33.39
2018-06-08T16:23:59.501Z,35.71
2018-06-08T16:26:29.375Z,34.25
2018-06-08T16:28:59.099Z,36.68
2018-06-08T16:31:28.969Z,35.68
2018-06-08T16:33:58.558Z,37.24
2018-06-08T16:36:28.549Z,38.65
2018-06-08T16:38:59.163Z,36.54
2018-06-08T16:41:30.744Z,36.11
2018-06-08T16:44:00.332Z,38.17
2018-06-08T16:46:29.970Z,37.23
2018-06-08T16:48:59.550Z,38.38
2018-06-08T16:51:29.056Z,40.64
2018-06-08T16:53:58.355Z,44.63
2018-06-08T16:56:27.878Z,45.99
2018-06-08T16:58:57.169Z,44.62
2018-06-08T17:01:26.418Z,47.38
2018-06-08T17:03:55.841Z,46.70
2018-06-08T17:06:25.077Z,47.32
2018-06-08T17:08:54.308Z,47.23
2018-06-08T17:11:28.125Z,47.87
2018-06-08T17:13:57.090Z,47.54
2018-06-08T17:16:26.319Z,47.48
2018-06-08T17:18:59.136Z,47.63
2018-06-08T17:21:33.084Z,48.43
2018-06-08T17:24:02.823Z,49.40
2018-06-08T17:26:32.570Z,49.63
2018-06-08T17:29:01.671Z,49.86
2018-06-08T17:31:31.040Z,50.34
2018-06-08T17:34:00.362Z,49.17
2018-06-08T17:36:29.685Z,49.05
2018-06-08T17:38:58.975Z,49.90
2018-06-08T17:41:28.260Z,48.48
2018-06-08T17:43:57.482Z,49.95
2018-06-08T17:46:26.688Z,48.72
2018-06-08T17:48:55.959Z,51.01
2018-06-08T17:51:25.225Z,50.74
2018-06-08T17:53:54.522Z,51.60
2018-06-08T17:56:23.848Z,49.64
2018-06-08T17:58:53.087Z,49.93
2018-06-08T18:01:22.352Z,50.96
2018-06-08T18:03:51.656Z,51.45
2018-06-08T18:06:20.963Z,50.06
2018-06-08T18:08:50.295Z,50.93
2018-06-08T18:11:19.605Z,51.92
2018-06-08T18:13:48.880Z,53.17
2018-06-08T18:16:18.211Z,53.18
2018-06-08T18:18:47.254Z,53.30
2018-06-08T18:21:16.531Z,52.85
2018-06-08T18:23:45.821Z,54.64
2018-06-08T18:26:15.095Z,54.23
2018-06-08T18:28:44.127Z,55.16
2018-06-08T18:31:13.552Z,55.08
2018-06-08T18:33:42.904Z,55.09
2018-06-08T18:36:12.259Z,55.45
2018-06-08T18:38:41.650Z,55.28
2018-06-08T18:41:11.191Z,56.61
2018-06-08T18:43:40.343Z,55.61
2018-06-08T18:46:09.928Z,56.31
2018-06-08T18:48:39.500Z,57.13
2018-06-08T18:51:09.070Z,57.61
2018-06-08T18:53:38.701Z,57.59
2018-06-08T18:56:08.345Z,57.83
2018-06-08T18:58:37.651Z,57.79
2018-06-08T19:01:07.241Z,58.56
2018-06-08T19:03:36.960Z,58.94
2018-06-08T19:06:06.620Z,59.53
2018-06-08T19:08:36.212Z,59.99
2018-06-08T19:11:05.969Z,60.04
2018-06-08T19:13:35.558Z,60.30
2018-06-08T19:16:05.099Z,60.93
2018-06-08T19:18:34.642Z,61.04
2018-06-08T19:21:04.197Z,61.43
2018-06-08T19:23:33.487Z,61.50
2018-06-08T19:26:03.069Z,61.90
2018-06-08T19:28:32.569Z,62.38
2018-06-08T19:31:02.109Z,62.38
2018-06-08T19:33:31.781Z,62.87
2018-06-08T19:36:01.353Z,63.11
2018-06-08T19:38:31.026Z,63.95
2018-06-08T19:41:00.650Z,64.04
2018-06-08T19:43:29.900Z,64.38
2018-06-08T19:45:59.518Z,64.25
2018-06-08T19:48:29.155Z,65.11
2018-06-08T19:50:58.511Z,65.38
2018-06-08T19:53:28.192Z,64.97
2018-06-08T19:55:57.790Z,65.28
2018-06-08T19:58:27.505Z,66.02
2018-06-08T20:00:57.258Z,66.13
2018-06-08T20:03:26.937Z,66.91
2018-06-08T20:05:56.545Z,67.09
2018-06-08T20:08:26.159Z,66.69
2018-06-08T20:10:55.787Z,67.19
2018-06-08T20:13:25.324Z,67.51
2018-06-08T20:15:54.915Z,67.50
2018-06-08T20:18:24.529Z,67.60
2018-06-08T20:20:54.185Z,67.83
2018-06-08T20:23:23.888Z,67.46
2018-06-08T20:25:53.515Z,68.43
2018-06-08T20:28:23.163Z,67.88
2018-06-08T20:30:52.395Z,68.85
2018-06-08T20:33:21.843Z,68.17
2018-06-08T20:35:51.133Z,68.22
2018-06-08T20:38:20.436Z,68.82
2018-06-08T20:40:49.824Z,67.94
2018-06-08T20:43:19.147Z,68.40
2018-06-08T20:45:48.556Z,68.35
2018-06-08T20:48:17.864Z,68.44
2018-06-08T20:50:47.184Z,68.85
2018-06-08T20:53:16.469Z,68.45
2018-06-08T20:55:45.864Z,69.10
2018-06-08T20:58:22.915Z,68.61
2018-06-08T21:00:52.092Z,69.35
2018-06-08T21:03:21.319Z,69.04
2018-06-08T21:05:50.501Z,69.33
2018-06-08T21:08:19.808Z,69.99
2018-06-08T21:10:49.045Z,69.41
2018-06-08T21:13:18.236Z,68.88
2018-06-08T21:15:47.455Z,69.26
2018-06-08T21:18:16.632Z,71.05
2018-06-08T21:20:45.816Z,70.24
2018-06-08T21:23:15.037Z,72.23
2018-06-08T21:25:44.227Z,71.50
2018-06-08T21:28:13.414Z,70.51
2018-06-08T21:30:42.610Z,71.06
2018-06-08T21:33:11.802Z,70.51
2018-06-08T21:35:41.009Z,71.94
2018-06-08T21:38:10.196Z,70.50
2018-06-08T21:40:39.397Z,70.22
2018-06-08T21:43:08.680Z,69.92
2018-06-08T21:45:37.879Z,70.03
2018-06-08T21:48:07.097Z,70.30
2018-06-08T21:50:36.293Z,70.13
2018-06-08T21:53:05.493Z,69.56
2018-06-08T21:55:34.688Z,70.10
2018-06-08T21:58:03.893Z,69.99
2018-06-08T22:00:33.078Z,70.27
2018-06-08T22:03:02.264Z,70.48
2018-06-08T22:05:31.440Z,70.21
2018-06-08T22:08:00.640Z,70.77
2018-06-08T22:10:29.834Z,70.39
2018-06-08T22:12:59.013Z,70.48
2018-06-08T22:15:28.197Z,69.64
2018-06-08T22:17:57.381Z,69.36
2018-06-08T22:20:26.569Z,70.29
2018-06-08T22:22:55.788Z,70.94
2018-06-08T22:25:24.733Z,71.09
2018-06-08T22:27:53.922Z,70.87
2018-06-08T22:30:23.128Z,71.43
2018-06-08T22:32:53.389Z,71.35
2018-06-08T22:35:22.590Z,70.96
2018-06-08T22:37:51.773Z,71.18
2018-06-08T22:40:20.957Z,70.87
2018-06-08T22:42:50.252Z,70.10
2018-06-08T22:45:19.428Z,69.92
2018-06-08T22:47:48.604Z,69.01
2018-06-08T22:50:17.805Z,69.89
2018-06-08T22:52:46.992Z,69.86
2018-06-08T22:55:16.196Z,70.19
2018-06-08T22:57:45.372Z,70.43
2018-06-08T23:00:18.169Z,70.91
2018-06-08T23:02:47.321Z,70.18
2018-06-08T23:05:16.505Z,70.71
2018-06-08T23:07:45.650Z,70.83
2018-06-08T23:10:14.816Z,71.08
2018-06-08T23:12:43.964Z,69.95
2018-06-08T23:15:13.133Z,69.59
2018-06-08T23:17:42.275Z,68.79
2018-06-08T23:20:11.457Z,68.82
2018-06-08T23:22:40.615Z,68.78
2018-06-08T23:25:09.772Z,68.98
2018-06-08T23:27:38.924Z,67.92
2018-06-08T23:30:08.073Z,68.02
2018-06-08T23:32:37.232Z,68.07
2018-06-08T23:35:06.395Z,68.92
2018-06-08T23:37:35.544Z,68.89
2018-06-08T23:40:04.721Z,68.98
2018-06-08T23:42:33.864Z,68.60
2018-06-08T23:45:03.016Z,69.26
2018-06-08T23:47:32.173Z,69.77
2018-06-08T23:50:01.325Z,69.42
2018-06-08T23:52:30.479Z,69.46
2018-06-08T23:54:59.399Z,70.34
2018-06-08T23:57:28.551Z,71.03
2018-06-08T23:59:57.736Z,70.13
